createdAt,value
2022-12-13T00:01:58.234Z,9.32
2022-12-13T00:04:26.326Z,10.10
2022-12-13T00:06:56.443Z,7.63
2022-12-13T00:09:24.150Z,8.02
2022-12-13T00:11:52.256Z,7.40
2022-12-13T00:14:19.178Z,8.38
2022-12-13T00:16:50.056Z,7.53
2022-12-13T00:19:18.587Z,7.38
2022-12-13T00:21:45.923Z,8.45
2022-12-13T00:24:12.966Z,8.68
2022-12-13T00:26:42.907Z,9.43
2022-12-13T00:29:11.332Z,10.10
2022-12-13T00:32:00.063Z,9.38
2022-12-13T00:34:25.822Z,8.13
2022-12-13T00:36:55.160Z,9.18
2022-12-13T00:39:22.625Z,9.07
2022-12-13T00:41:49.506Z,11.75
2022-12-13T00:44:16.727Z,10.85
2022-12-13T00:46:43.802Z,8.60
2022-12-13T00:49:12.883Z,8.23
2022-12-13T00:51:41.027Z,9.10
2022-12-13T00:54:08.453Z,8.05
2022-12-13T00:56:37.252Z,7.80
2022-12-13T00:59:04.837Z,8.05
2022-12-13T01:01:36.402Z,9.52
2022-12-13T01:04:05.369Z,8.23
2022-12-13T01:06:45.197Z,8.27
2022-12-13T01:09:24.286Z,8.75
2022-12-13T01:11:51.321Z,8.75
2022-12-13T01:14:19.380Z,8.80
2022-12-13T01:29:36.596Z,8.13
2022-12-13T01:32:04.200Z,8.00
2022-12-13T01:34:31.188Z,9.18
2022-12-13T01:36:58.882Z,7.85
2022-12-13T01:39:27.967Z,9.23
2022-12-13T01:41:59.580Z,7.40
2022-12-13T01:45:19.931Z,10.43
2022-12-13T01:48:03.735Z,9.07
2022-12-13T01:50:44.869Z,10.35
2022-12-13T01:53:18.713Z,9.90
2022-12-13T01:55:51.990Z,8.07
2022-12-13T01:58:20.651Z,7.90
2022-12-13T02:00:49.594Z,8.05
2022-12-13T02:03:21.439Z,7.90
2022-12-13T02:06:01.368Z,6.20
2022-12-13T02:08:29.984Z,6.82
2022-12-13T02:10:58.992Z,6.30
2022-12-13T02:13:25.922Z,8.40
2022-12-13T02:16:30.210Z,8.38
2022-12-13T02:19:09.125Z,7.05
2022-12-13T02:22:13.455Z,7.55
2022-12-13T02:25:32.404Z,7.68
2022-12-13T02:28:45.286Z,6.13
2022-12-13T02:31:15.978Z,6.27
2022-12-13T02:34:02.102Z,6.65
2022-12-13T02:36:41.735Z,6.30
2022-12-13T02:39:30.720Z,5.28
2022-12-13T02:42:22.417Z,5.22
2022-12-13T02:45:20.796Z,5.70
2022-12-13T02:47:54.552Z,5.32
2022-12-13T02:50:25.396Z,6.30
2022-12-13T02:52:54.428Z,4.68
2022-12-13T02:55:26.550Z,8.85
2022-12-13T02:57:55.250Z,4.93
2022-12-13T03:00:32.428Z,5.53
2022-12-13T03:03:11.615Z,4.70
2022-12-13T03:06:09.493Z,5.57
2022-12-13T03:09:12.933Z,6.30
2022-12-13T03:15:28.146Z,7.25
2022-12-13T03:18:06.284Z,8.40
2022-12-13T03:20:33.354Z,6.63
2022-12-13T03:23:00.455Z,5.53
2022-12-13T03:25:32.667Z,6.55
2022-12-13T03:28:02.434Z,6.85
2022-12-13T03:30:32.521Z,6.00
2022-12-13T03:33:00.793Z,6.45
2022-12-13T03:35:34.512Z,9.23
2022-12-13T03:40:59.456Z,5.15
2022-12-13T03:43:27.499Z,7.50
2022-12-13T03:45:55.385Z,7.40
2022-12-13T03:48:24.118Z,6.78
2022-12-13T03:50:53.572Z,8.00
2022-12-13T03:53:32.363Z,10.75
2022-12-13T03:56:05.140Z,7.82
2022-12-13T03:58:36.221Z,5.10
2022-12-13T04:01:15.250Z,6.07
2022-12-13T04:03:45.500Z,6.80
2022-12-13T04:06:22.766Z,5.53
2022-12-13T04:08:51.578Z,6.82
2022-12-13T04:11:43.272Z,6.25
2022-12-13T04:14:21.887Z,7.38
2022-12-13T04:16:52.339Z,5.53
2022-12-13T04:19:23.092Z,5.13
2022-12-13T04:21:54.798Z,8.07
2022-12-13T04:24:31.845Z,5.53
2022-12-13T04:27:01.388Z,5.53
2022-12-13T04:29:34.095Z,5.78
2022-12-13T04:32:26.012Z,5.40
2022-12-13T04:34:53.129Z,5.90
2022-12-13T04:37:28.708Z,5.43
2022-12-13T04:40:00.949Z,4.78
2022-12-13T04:42:28.518Z,4.63
2022-12-13T04:44:55.450Z,5.90
2022-12-13T04:47:22.374Z,5.78
2022-12-13T04:49:49.425Z,4.65
2022-12-13T04:52:22.489Z,5.88
2022-12-13T04:54:56.057Z,4.60
2022-12-13T04:57:24.248Z,5.68
2022-12-13T04:59:51.200Z,6.60
2022-12-13T05:02:23.930Z,4.47
2022-12-13T05:04:54.200Z,5.47
2022-12-13T05:07:22.848Z,4.65
2022-12-13T05:09:49.874Z,4.45
2022-12-13T05:12:22.471Z,5.32
2022-12-13T05:14:52.171Z,4.45
2022-12-13T05:17:19.619Z,7.40
2022-12-13T05:19:46.653Z,4.78
2022-12-13T05:22:19.784Z,5.50
2022-12-13T05:24:48.357Z,5.78
2022-12-13T05:27:24.705Z,7.13
2022-12-13T05:30:04.427Z,5.65
2022-12-13T05:32:43.846Z,6.85
2022-12-13T05:35:22.340Z,7.70
2022-12-13T05:37:53.957Z,6.55
2022-12-13T05:40:26.534Z,7.47
2022-12-13T05:43:00.943Z,7.55
2022-12-13T05:45:31.189Z,5.13
2022-12-13T05:47:58.800Z,8.27
2022-12-13T05:50:26.193Z,7.18
2022-12-13T05:52:53.245Z,8.38
2022-12-13T05:55:20.439Z,8.05
2022-12-13T05:57:50.402Z,6.93
2022-12-13T06:00:29.670Z,6.53
2022-12-13T06:03:00.940Z,9.50
2022-12-13T06:05:30.351Z,7.40
2022-12-13T06:07:58.370Z,6.95
2022-12-13T06:10:34.073Z,7.75
2022-12-13T06:13:21.948Z,7.57
2022-12-13T06:16:01.405Z,7.55
2022-12-13T06:18:31.543Z,7.57
2022-12-13T06:21:06.271Z,7.22
2022-12-13T06:23:34.662Z,8.70
2022-12-13T06:26:07.372Z,8.15
2022-12-13T06:28:34.963Z,7.47
2022-12-13T06:31:05.531Z,6.75
2022-12-13T06:33:36.500Z,9.63
2022-12-13T06:36:05.052Z,10.05
2022-12-13T06:38:32.525Z,7.82
2022-12-13T06:41:10.933Z,6.65
2022-12-13T06:43:37.908Z,8.23
2022-12-13T06:46:06.201Z,9.13
2022-12-13T06:48:33.739Z,8.45
2022-12-13T06:51:04.874Z,9.43
2022-12-13T06:53:32.370Z,10.15
2022-12-13T06:56:05.713Z,7.47
2022-12-13T06:58:34.400Z,8.60
2022-12-13T07:01:04.234Z,7.75
2022-12-13T07:03:32.241Z,8.80
2022-12-13T07:06:03.564Z,9.18
2022-12-13T07:08:33.728Z,10.15
2022-12-13T07:11:00.657Z,9.07
2022-12-13T07:13:27.593Z,11.48
2022-12-13T07:15:54.599Z,11.98
2022-12-13T07:18:28.344Z,11.65
2022-12-13T07:20:55.303Z,14.35
2022-12-13T07:23:24.350Z,12.80
2022-12-13T07:25:55.627Z,12.73
2022-12-13T07:28:22.873Z,11.25
2022-12-13T07:30:49.861Z,8.73
2022-12-13T07:33:21.694Z,10.15
2022-12-13T07:35:55.186Z,11.75
2022-12-13T07:38:22.496Z,12.93
2022-12-13T07:40:49.408Z,10.60
2022-12-13T07:43:16.760Z,10.20
2022-12-13T07:45:44.209Z,9.43
2022-12-13T07:48:11.135Z,10.90
2022-12-13T07:50:38.209Z,9.60
2022-12-13T07:53:08.134Z,9.40
2022-12-13T07:55:37.031Z,9.98
2022-12-13T08:11:44.933Z,9.82
2022-12-13T08:14:11.919Z,10.82
2022-12-13T08:16:38.829Z,11.98
2022-12-13T08:19:05.774Z,9.43
2022-12-13T08:21:56.797Z,12.30
2022-12-13T08:24:28.112Z,10.57
2022-12-13T08:27:04.643Z,11.45
2022-12-13T08:29:35.788Z,10.18
2022-12-13T08:32:13.187Z,11.13
2022-12-13T08:34:41.401Z,13.68
2022-12-13T08:37:08.517Z,12.82
2022-12-13T08:39:37.959Z,13.43
2022-12-13T08:42:15.796Z,9.88
2022-12-13T08:44:50.842Z,8.57
2022-12-13T08:47:26.077Z,9.57
2022-12-13T08:50:01.819Z,8.68
2022-12-13T08:52:41.657Z,8.90
2022-12-13T08:55:15.619Z,9.57
2022-12-13T08:57:44.496Z,9.50
2022-12-13T09:00:16.359Z,9.48
2022-12-13T09:02:44.475Z,11.30
2022-12-13T09:05:33.789Z,10.27
2022-12-13T09:08:04.177Z,10.80
2022-12-13T09:10:38.513Z,9.27
2022-12-13T09:13:11.748Z,10.52
2022-12-13T09:15:45.802Z,10.13
2022-12-13T09:18:15.098Z,8.35
2022-12-13T09:20:42.854Z,9.70
2022-12-13T09:23:14.124Z,9.30
2022-12-13T09:26:05.561Z,9.30
2022-12-13T09:28:36.917Z,8.05
2022-12-13T09:31:19.750Z,11.23
2022-12-13T09:33:47.310Z,8.35
2022-12-13T09:36:18.765Z,10.75
2022-12-13T09:38:46.849Z,9.60
2022-12-13T09:41:28.441Z,9.38
2022-12-13T09:44:32.187Z,8.57
2022-12-13T09:47:13.705Z,10.43
2022-12-13T09:49:52.217Z,10.43
2022-12-13T09:52:24.640Z,9.98
2022-12-13T09:54:57.517Z,9.95
2022-12-13T10:00:14.439Z,10.90
2022-12-13T10:02:52.723Z,8.57
2022-12-13T10:05:40.156Z,12.07
2022-12-13T10:08:15.072Z,10.50
2022-12-13T10:10:43.887Z,9.32
2022-12-13T10:13:41.639Z,10.80
2022-12-13T10:16:23.190Z,10.73
2022-12-13T10:18:51.733Z,13.13
2022-12-13T10:21:27.803Z,10.80
2022-12-13T10:26:50.550Z,12.20
2022-12-13T10:29:17.581Z,16.05
2022-12-13T10:31:52.050Z,11.98
2022-12-13T10:34:27.070Z,14.52
2022-12-13T10:36:54.593Z,12.25
2022-12-13T10:42:22.636Z,11.52
2022-12-13T10:45:23.669Z,11.20
2022-12-13T10:47:51.384Z,12.20
2022-12-13T10:50:29.975Z,11.27
2022-12-13T10:53:00.620Z,11.25
2022-12-13T10:55:38.114Z,12.63
2022-12-13T10:58:09.435Z,8.98
2022-12-13T11:00:46.599Z,10.30
2022-12-13T11:03:33.681Z,10.75
2022-12-13T11:06:18.956Z,8.35
2022-12-13T11:08:45.936Z,10.25
2022-12-13T11:11:29.118Z,10.70
2022-12-13T11:14:03.723Z,9.27
2022-12-13T11:16:41.875Z,8.43
2022-12-13T11:19:25.288Z,10.90
2022-12-13T11:21:54.481Z,10.88
2022-12-13T11:24:32.867Z,12.93
2022-12-13T11:27:34.603Z,11.65
2022-12-13T11:30:19.594Z,10.35
2022-12-13T11:33:04.479Z,10.63
2022-12-13T11:35:47.954Z,10.02
2022-12-13T11:38:36.155Z,7.38
2022-12-13T11:41:32.316Z,7.57
2022-12-13T11:44:29.316Z,10.85
2022-12-13T11:47:01.295Z,9.02
2022-12-13T11:49:38.891Z,8.07
2022-12-13T11:52:41.064Z,8.55
2022-12-13T11:55:26.842Z,9.82
2022-12-13T11:58:06.901Z,10.93
2022-12-13T12:01:07.486Z,9.75
2022-12-13T12:03:57.980Z,8.52
2022-12-13T12:06:44.492Z,9.20
2022-12-13T12:09:18.673Z,8.60
2022-12-13T12:12:00.101Z,9.07
2022-12-13T12:14:56.901Z,7.82
2022-12-13T12:17:37.746Z,8.88
2022-12-13T12:20:23.246Z,9.43
2022-12-13T12:23:09.479Z,8.70
2022-12-13T12:26:10.063Z,9.85
2022-12-13T12:29:10.650Z,9.30
2022-12-13T12:32:07.885Z,10.13
2022-12-13T12:34:45.626Z,10.15
2022-12-13T12:38:02.303Z,9.93
2022-12-13T12:41:16.563Z,11.65
2022-12-13T12:43:55.718Z,10.07
2022-12-13T12:47:08.631Z,7.70
2022-12-13T12:50:27.645Z,9.98
2022-12-13T12:53:22.511Z,11.50
2022-12-13T12:56:13.573Z,11.30
2022-12-13T12:58:54.109Z,11.20
2022-12-13T13:01:44.204Z,9.15
2022-12-13T13:04:22.203Z,8.02
2022-12-13T13:07:06.395Z,9.75
2022-12-13T13:09:55.037Z,9.63
2022-12-13T13:12:29.985Z,9.88
2022-12-13T13:14:58.457Z,11.02
2022-12-13T13:17:25.364Z,11.52
2022-12-13T13:20:27.883Z,8.95
2022-12-13T13:23:38.984Z,10.15
2022-12-13T13:28:42.963Z,12.77
2022-12-13T13:31:11.329Z,12.75
2022-12-13T13:33:51.417Z,16.27
2022-12-13T13:36:42.832Z,13.23
2022-12-13T13:39:28.142Z,15.05
2022-12-13T13:42:10.012Z,12.05
2022-12-13T13:44:45.810Z,10.00
2022-12-13T13:47:14.629Z,10.48
2022-12-13T13:50:17.103Z,10.40
2022-12-13T13:53:09.372Z,9.02
2022-12-13T13:56:22.581Z,9.77
2022-12-13T13:59:29.316Z,8.80
2022-12-13T14:02:17.278Z,10.15
2022-12-13T14:05:05.620Z,8.05
2022-12-13T14:08:22.591Z,9.75
2022-12-13T14:24:24.519Z,11.55
2022-12-13T14:27:28.377Z,14.38
2022-12-13T14:29:58.867Z,13.43
2022-12-13T14:32:39.475Z,10.80
2022-12-13T14:35:25.809Z,13.07
2022-12-13T14:38:36.898Z,8.27
2022-12-13T14:41:04.151Z,9.50
2022-12-13T14:43:34.538Z,9.50
2022-12-13T14:46:05.344Z,10.88
2022-12-13T14:48:50.752Z,11.82
2022-12-13T14:51:33.953Z,10.82
2022-12-13T14:54:04.375Z,11.52
2022-12-13T14:56:31.822Z,11.15
2022-12-13T14:59:03.299Z,10.45
2022-12-13T15:01:40.753Z,15.50
2022-12-13T15:04:25.953Z,18.27
2022-12-13T15:07:33.926Z,21.25
2022-12-13T15:10:24.636Z,11.55
2022-12-13T15:12:55.800Z,10.15
2022-12-13T15:15:29.049Z,13.75
2022-12-13T15:18:21.333Z,15.55
2022-12-13T15:20:51.169Z,21.05
2022-12-13T15:23:34.085Z,20.88
2022-12-13T15:26:27.964Z,16.63
2022-12-13T15:29:01.267Z,17.88
2022-12-13T15:31:28.850Z,12.27
2022-12-13T15:34:29.970Z,19.83
2022-12-13T15:37:28.220Z,18.40
2022-12-13T15:40:06.978Z,20.90
2022-12-13T15:42:44.504Z,17.52
2022-12-13T15:45:33.118Z,15.63
2022-12-13T15:48:01.991Z,15.52
2022-12-13T15:50:43.735Z,19.25
2022-12-13T15:53:28.339Z,16.17
2022-12-13T15:55:55.798Z,12.40
2022-12-13T15:58:27.954Z,11.40
2022-12-13T16:00:55.238Z,8.07
2022-12-13T16:03:26.603Z,13.85
2022-12-13T16:05:57.277Z,11.77
2022-12-13T16:08:35.794Z,10.35
2022-12-13T16:11:03.145Z,11.85
2022-12-13T16:13:34.179Z,13.05
2022-12-13T16:16:26.583Z,12.35
2022-12-13T16:19:00.845Z,12.88
2022-12-13T16:21:30.014Z,13.20
2022-12-13T16:23:56.900Z,65.65
2022-12-13T16:26:28.763Z,78.55
2022-12-13T16:29:00.214Z,267.60
2022-12-13T16:31:36.442Z,69.95
2022-12-13T16:34:05.419Z,24.52
2022-12-13T16:36:33.099Z,18.95
2022-12-13T16:39:00.225Z,15.32
2022-12-13T16:41:27.635Z,14.68
2022-12-13T16:44:02.033Z,18.05
2022-12-13T16:47:12.765Z,15.68
2022-12-13T16:49:27.943Z,22.85
2022-12-13T16:51:56.070Z,16.60
2022-12-13T16:54:25.228Z,20.70
2022-12-13T16:56:53.974Z,21.45
2022-12-13T16:59:24.909Z,18.92
2022-12-13T17:01:53.104Z,17.33
2022-12-13T17:04:24.285Z,18.42
2022-12-13T17:06:54.872Z,16.55
2022-12-13T17:09:24.604Z,17.08
2022-12-13T17:11:51.604Z,20.13
2022-12-13T17:14:18.635Z,23.88
2022-12-13T17:16:45.669Z,24.30
2022-12-13T17:19:15.592Z,23.40
2022-12-13T17:21:43.161Z,20.90
2022-12-13T17:24:10.180Z,19.75
2022-12-13T17:26:37.229Z,19.27
2022-12-13T17:29:04.774Z,17.92
2022-12-13T17:31:35.817Z,18.00
2022-12-13T17:34:05.280Z,17.08
2022-12-13T17:36:32.461Z,15.85
2022-12-13T17:38:59.556Z,18.83
2022-12-13T17:41:26.593Z,15.68
2022-12-13T17:43:53.532Z,20.05
2022-12-13T17:46:20.605Z,15.93
2022-12-13T17:48:47.680Z,16.38
2022-12-13T17:51:15.310Z,17.30
2022-12-13T17:53:44.388Z,17.30
2022-12-13T17:56:17.696Z,16.88
2022-12-13T17:58:45.075Z,18.20
2022-12-13T18:01:20.522Z,16.58
2022-12-13T18:03:49.098Z,16.42
2022-12-13T18:06:16.747Z,16.80
2022-12-13T18:08:45.638Z,62.33
2022-12-13T18:14:08.311Z,18.67
2022-12-13T18:16:38.817Z,17.27
2022-12-13T18:19:13.569Z,15.43
2022-12-13T18:21:43.205Z,16.17
2022-12-13T18:24:11.998Z,17.38
2022-12-13T18:26:39.343Z,17.90
2022-12-13T18:29:06.626Z,17.90
2022-12-13T18:44:32.540Z,22.48
2022-12-13T18:46:59.574Z,19.50
2022-12-13T18:49:26.648Z,17.08
2022-12-13T18:51:53.685Z,17.10
2022-12-13T18:54:20.720Z,21.52
2022-12-13T18:56:47.803Z,17.10
2022-12-13T18:59:14.934Z,18.83
2022-12-13T19:01:42.208Z,19.27
2022-12-13T19:04:09.309Z,33.13
2022-12-13T19:06:36.459Z,18.48
2022-12-13T19:09:03.659Z,19.83
2022-12-13T19:11:31.183Z,21.45
2022-12-13T19:13:58.337Z,22.15
2022-12-13T19:16:26.418Z,25.83
2022-12-13T19:18:54.169Z,27.15
2022-12-13T19:21:23.057Z,23.30
2022-12-13T19:23:56.884Z,23.40
2022-12-13T19:26:26.827Z,21.42
2022-12-13T19:28:56.775Z,26.08
2022-12-13T19:31:30.072Z,27.70
2022-12-13T19:33:59.913Z,27.65
2022-12-13T19:36:32.156Z,33.25
2022-12-13T19:38:59.870Z,29.02
2022-12-13T19:41:27.552Z,28.83
2022-12-13T19:43:55.608Z,28.58
2022-12-13T19:46:22.977Z,29.40
2022-12-13T19:48:50.445Z,31.83
2022-12-13T19:51:17.972Z,34.45
2022-12-13T19:53:45.072Z,27.00
2022-12-13T19:56:17.812Z,21.17
2022-12-13T19:58:47.689Z,23.92
2022-12-13T20:01:17.668Z,25.38
2022-12-13T20:03:46.792Z,26.00
2022-12-13T20:06:19.589Z,23.58
2022-12-13T20:08:47.509Z,24.02
2022-12-13T20:11:23.091Z,23.45
2022-12-13T20:13:56.139Z,21.45
2022-12-13T20:16:27.056Z,23.95
2022-12-13T20:18:57.713Z,20.33
2022-12-13T20:21:25.858Z,22.38
2022-12-13T20:23:54.348Z,22.02
2022-12-13T20:26:29.412Z,24.20
2022-12-13T20:28:57.729Z,61.60
2022-12-13T20:31:32.585Z,49.47
2022-12-13T20:34:04.432Z,30.58
2022-12-13T20:36:31.809Z,38.67
2022-12-13T20:39:02.992Z,51.85
2022-12-13T20:41:33.833Z,52.67
2022-12-13T20:44:04.319Z,74.43
2022-12-13T20:46:32.018Z,73.82
2022-12-13T20:49:02.218Z,44.30
2022-12-13T20:51:32.343Z,34.53
2022-12-13T20:54:00.318Z,30.83
2022-12-13T20:56:31.812Z,25.58
2022-12-13T20:58:59.194Z,24.42
2022-12-13T21:01:31.120Z,22.67
2022-12-13T21:04:02.068Z,26.33
2022-12-13T21:06:34.654Z,22.77
2022-12-13T21:09:03.165Z,24.67
2022-12-13T21:11:42.381Z,23.45
2022-12-13T21:14:23.350Z,20.85
2022-12-13T21:16:54.443Z,22.70
2022-12-13T21:19:37.470Z,22.38
2022-12-13T21:22:07.506Z,22.77
2022-12-13T21:24:34.792Z,21.88
2022-12-13T21:27:01.952Z,23.05
2022-12-13T21:29:29.029Z,29.08
2022-12-13T21:31:56.271Z,24.40
2022-12-13T21:34:24.040Z,20.65
2022-12-13T21:36:52.790Z,23.08
2022-12-13T21:39:29.311Z,23.75
2022-12-13T21:41:57.563Z,25.10
2022-12-13T21:44:24.786Z,26.95
2022-12-13T21:47:11.738Z,31.52
2022-12-13T21:49:39.245Z,28.38
2022-12-13T21:52:08.365Z,28.20
2022-12-13T21:54:35.529Z,28.48
2022-12-13T21:57:21.358Z,27.77
2022-12-13T21:59:48.329Z,27.23
2022-12-13T22:02:18.310Z,24.80
2022-12-13T22:04:54.427Z,23.45
2022-12-13T22:07:30.303Z,23.92
2022-12-13T22:09:58.955Z,26.45
2022-12-13T22:12:41.703Z,19.48
2022-12-13T22:15:15.193Z,21.55
2022-12-13T22:17:43.380Z,21.70
2022-12-13T22:20:14.152Z,22.98
2022-12-13T22:22:44.294Z,24.67
2022-12-13T22:25:11.443Z,23.02
2022-12-13T22:27:38.411Z,26.00
2022-12-13T22:30:06.244Z,24.17
2022-12-13T22:32:33.946Z,21.10
2022-12-13T22:35:00.909Z,21.60
2022-12-13T22:37:27.995Z,23.70
2022-12-13T22:39:55.021Z,28.80
2022-12-13T22:42:22.460Z,31.95
2022-12-13T22:44:49.455Z,30.33
2022-12-13T22:47:16.404Z,30.77
2022-12-13T22:49:43.493Z,27.60
2022-12-13T22:52:10.564Z,25.10
2022-12-13T22:54:37.493Z,23.33
2022-12-13T22:57:04.701Z,27.58
2022-12-13T22:59:31.824Z,22.05
2022-12-13T23:02:02.420Z,24.67
2022-12-13T23:04:31.770Z,24.63
2022-12-13T23:06:58.872Z,23.25
2022-12-13T23:09:25.928Z,24.33
2022-12-13T23:12:11.715Z,21.35
2022-12-13T23:14:38.612Z,22.77
2022-12-13T23:17:06.197Z,24.00
2022-12-13T23:19:52.894Z,22.50
2022-12-13T23:22:25.839Z,24.23
2022-12-13T23:24:53.408Z,22.67
2022-12-13T23:27:23.295Z,24.65
2022-12-13T23:29:50.354Z,22.42
2022-12-13T23:32:18.578Z,23.15
2022-12-13T23:34:45.598Z,21.58
2022-12-13T23:37:12.614Z,20.88
2022-12-13T23:39:39.595Z,23.38
2022-12-13T23:42:06.511Z,20.63
2022-12-13T23:44:33.651Z,25.70
2022-12-13T23:47:00.685Z,24.27
2022-12-13T23:49:27.643Z,30.70
2022-12-13T23:51:54.570Z,29.33
2022-12-13T23:54:21.557Z,31.67
2022-12-13T23:56:48.567Z,27.30
2022-12-13T23:59:15.580Z,33.47
